Time,TemperatureF,DewpointF,PressureIn,WindDirection,WindDirectionDegrees,WindSpeedMPH,WindSpeedGustMPH,Humidity,HourlyPrecipIn,Conditions,Clouds,dailyrainin,SoftwareType,DateUTC
2013-04-10 00:00:00,54.4,50.0,30.04,SW,228,0.0,0.0,85,0.00,,,0.00,Wunderground v.1.15,2013-04-10 04:00:00,
2013-04-10 00:05:00,54.1,49.7,30.04,SW,228,0.0,0.0,85,0.00,,,0.00,Wunderground v.1.15,2013-04-10 04:05:00,
2013-04-10 00:10:00,53.9,49.8,30.04,SW,228,0.0,0.0,86,0.00,,,0.00,Wunderground v.1.15,2013-04-10 04:10:00,
2013-04-10 00:20:00,53.6,49.8,30.04,SW,228,0.0,0.0,87,0.00,,,0.00,Wunderground v.1.15,2013-04-10 04:20:00,
2013-04-10 00:25:00,53.6,49.8,30.04,SW,228,0.0,0.0,87,0.00,,,0.00,Wunderground v.1.15,2013-04-10 04:25:00,
2013-04-10 00:30:00,53.8,50.0,30.04,SW,228,0.0,0.0,87,0.00,,,0.00,Wunderground v.1.15,2013-04-10 04:30:00,
2013-04-10 00:35:00,53.8,50.0,30.05,SW,228,0.0,0.0,87,0.00,,,0.00,Wunderground v.1.15,2013-04-10 04:35:00,
2013-04-10 00:40:00,53.8,50.3,30.05,SW,228,0.0,0.0,88,0.00,,,0.00,Wunderground v.1.15,2013-04-10 04:40:00,
2013-04-10 00:50:00,53.5,49.7,30.05,SW,228,0.0,0.0,87,0.00,,,0.00,Wunderground v.1.15,2013-04-10 04:50:00,
2013-04-10 01:00:00,52.9,49.4,30.05,SW,228,0.0,0.0,88,0.00,,,0.00,Wunderground v.1.15,2013-04-10 05:00:00,
2013-04-10 01:10:00,52.3,49.2,30.06,SW,228,0.0,0.0,89,0.00,,,0.00,Wunderground v.1.15,2013-04-10 05:10:00,
2013-04-10 01:20:00,51.9,48.8,30.06,SW,228,0.0,0.0,89,0.00,,,0.00,Wunderground v.1.15,2013-04-10 05:20:00,
2013-04-10 01:30:00,51.6,48.8,30.06,SW,228,0.0,0.0,90,0.00,,,0.00,Wunderground v.1.15,2013-04-10 05:30:00,
2013-04-10 01:35:00,51.6,49.1,30.06,SW,228,0.0,0.0,91,0.00,,,0.00,Wunderground v.1.15,2013-04-10 05:35:00,
2013-04-10 01:40:00,51.6,49.1,30.07,SW,228,0.0,0.0,91,0.00,,,0.00,Wunderground v.1.15,2013-04-10 05:40:00,
2013-04-10 01:50:00,51.6,49.1,30.06,SW,228,0.0,0.0,91,0.00,,,0.00,Wunderground v.1.15,2013-04-10 05:50:00,
2013-04-10 02:00:00,51.3,48.8,30.06,SW,228,0.0,0.0,91,0.00,,,0.00,Wunderground v.1.15,2013-04-10 06:00:00,
2013-04-10 02:10:00,51.0,48.5,30.07,SW,228,0.0,0.0,91,0.00,,,0.00,Wunderground v.1.15,2013-04-10 06:10:00,
2013-04-10 02:20:00,50.7,48.2,30.07,SW,228,0.0,0.0,91,0.00,,,0.00,Wunderground v.1.15,2013-04-10 06:20:00,
2013-04-10 02:25:00,50.5,48.3,30.06,SW,228,0.0,0.0,92,0.00,,,0.00,Wunderground v.1.15,2013-04-10 06:25:00,
2013-04-10 02:30:00,50.5,48.3,30.07,SW,228,0.0,0.0,92,0.00,,,0.00,Wunderground v.1.15,2013-04-10 06:30:00,
2013-04-10 02:35:00,50.5,48.3,30.06,SW,228,0.0,0.0,92,0.00,,,0.00,Wunderground v.1.15,2013-04-10 06:35:00,
2013-04-10 02:40:00,50.4,48.5,30.06,SW,228,0.0,0.0,93,0.00,,,0.00,Wunderground v.1.15,2013-04-10 06:40:00,
2013-04-10 02:50:00,50.4,48.5,30.06,SW,228,0.0,0.0,93,0.00,,,0.00,Wunderground v.1.15,2013-04-10 06:50:00,
2013-04-10 02:55:00,50.4,48.5,30.06,SW,228,0.0,0.0,93,0.00,,,0.00,Wunderground v.1.15,2013-04-10 06:55:00,
2013-04-10 03:05:00,50.2,48.0,30.06,SW,228,0.0,0.0,92,0.00,,,0.00,Wunderground v.1.15,2013-04-10 07:05:00,
2013-04-10 03:10:00,50.1,47.9,30.06,SW,228,0.0,0.0,92,0.00,,,0.00,Wunderground v.1.15,2013-04-10 07:10:00,
2013-04-10 03:15:00,49.9,47.7,30.06,SW,228,0.0,0.0,92,0.00,,,0.00,Wunderground v.1.15,2013-04-10 07:15:00,
2013-04-10 03:25:00,49.6,47.4,30.06,SW,228,0.0,0.0,92,0.00,,,0.00,Wunderground v.1.15,2013-04-10 07:25:00,
2013-04-10 03:30:00,49.4,47.2,30.06,SW,228,0.0,0.0,92,0.00,,,0.00,Wunderground v.1.15,2013-04-10 07:30:00,
2013-04-10 03:36:00,49.4,47.5,30.06,SW,228,0.0,0.0,93,0.00,,,0.00,Wunderground v.1.15,2013-04-10 07:36:00,
2013-04-10 03:45:00,49.4,47.7,30.06,SW,228,0.0,0.0,94,0.00,,,0.00,Wunderground v.1.15,2013-04-10 07:45:00,
2013-04-10 03:50:00,49.4,47.7,30.06,SW,228,0.0,0.0,94,0.00,,,0.00,Wunderground v.1.15,2013-04-10 07:50:00,
2013-04-10 04:00:00,49.4,47.7,30.05,SW,228,0.0,0.0,94,0.00,,,0.00,Wunderground v.1.15,2013-04-10 08:00:00,
2013-04-10 04:10:00,49.1,47.2,30.06,SW,228,0.0,0.0,93,0.00,,,0.00,Wunderground v.1.15,2013-04-10 08:10:00,
2013-04-10 04:15:00,48.8,46.9,30.06,SW,228,0.0,0.0,93,0.00,,,0.00,Wunderground v.1.15,2013-04-10 08:15:00,
2013-04-10 04:20:00,48.6,46.7,30.06,SW,228,0.0,0.0,93,0.00,,,0.00,Wunderground v.1.15,2013-04-10 08:20:00,
2013-04-10 04:30:00,48.2,46.6,30.06,SW,228,0.0,0.0,94,0.00,,,0.00,Wunderground v.1.15,2013-04-10 08:30:00,
2013-04-10 04:40:00,48.0,46.4,30.06,SW,228,0.0,0.0,94,0.00,,,0.00,Wunderground v.1.15,2013-04-10 08:40:00,
2013-04-10 04:50:00,47.7,46.3,30.06,SW,228,0.0,0.0,95,0.00,,,0.00,Wunderground v.1.15,2013-04-10 08:50:00,
2013-04-10 05:00:00,47.9,46.5,30.06,SW,228,0.0,0.0,95,0.00,,,0.00,Wunderground v.1.15,2013-04-10 09:00:00,
2013-04-10 05:10:00,47.9,46.5,30.06,SW,228,0.0,0.0,95,0.00,,,0.00,Wunderground v.1.15,2013-04-10 09:10:00,
2013-04-10 05:20:00,48.0,46.9,30.06,SW,228,0.0,0.0,96,0.00,,,0.00,Wunderground v.1.15,2013-04-10 09:20:00,
2013-04-10 05:35:00,47.9,46.5,30.05,SW,228,0.0,0.0,95,0.00,,,0.00,Wunderground v.1.15,2013-04-10 09:35:00,
2013-04-10 05:45:00,47.9,46.8,30.05,SW,228,0.0,0.0,96,0.00,,,0.00,Wunderground v.1.15,2013-04-10 09:45:00,
2013-04-10 05:50:00,47.7,46.6,30.05,SW,228,0.0,0.0,96,0.00,,,0.00,Wunderground v.1.15,2013-04-10 09:50:00,
2013-04-10 06:00:00,47.9,46.8,30.05,SW,228,0.0,0.0,96,0.00,,,0.00,Wunderground v.1.15,2013-04-10 10:00:00,
2013-04-10 06:10:00,47.9,46.8,30.05,SW,228,0.0,0.0,96,0.00,,,0.00,Wunderground v.1.15,2013-04-10 10:10:00,
2013-04-10 06:15:00,47.9,47.1,30.05,SW,228,0.0,0.0,97,0.00,,,0.00,Wunderground v.1.15,2013-04-10 10:15:00,
2013-04-10 06:20:00,48.0,47.2,30.05,SW,228,0.0,0.0,97,0.00,,,0.00,Wunderground v.1.15,2013-04-10 10:20:00,
2013-04-10 06:30:00,48.5,47.7,30.04,SW,228,0.0,0.0,97,0.00,,,0.00,Wunderground v.1.15,2013-04-10 10:30:00,
2013-04-10 06:35:00,48.6,47.8,30.04,SW,228,0.0,0.0,97,0.00,,,0.00,Wunderground v.1.15,2013-04-10 10:35:00,
2013-04-10 06:40:00,48.5,47.7,30.04,SW,228,0.0,0.0,97,0.00,,,0.00,Wunderground v.1.15,2013-04-10 10:40:00,
2013-04-10 06:50:00,48.8,48.0,30.05,SW,228,0.0,0.0,97,0.00,,,0.00,Wunderground v.1.15,2013-04-10 10:50:00,
2013-04-10 07:00:00,48.8,48.0,30.05,SW,228,0.0,0.0,97,0.00,,,0.00,Wunderground v.1.15,2013-04-10 11:00:00,
2013-04-10 07:10:00,48.9,48.1,30.05,SW,228,0.0,0.0,97,0.00,,,0.00,Wunderground v.1.15,2013-04-10 11:10:00,
2013-04-10 07:15:00,48.9,48.1,30.05,SW,228,0.0,0.0,97,0.00,,,0.00,Wunderground v.1.15,2013-04-10 11:15:00,
2013-04-10 07:20:00,48.9,48.1,30.05,SW,228,0.0,0.0,97,0.00,,,0.00,Wunderground v.1.15,2013-04-10 11:20:00,
2013-04-10 07:25:00,49.1,48.3,30.05,SW,228,0.0,0.0,97,0.00,,,0.00,Wunderground v.1.15,2013-04-10 11:25:00,
2013-04-10 07:30:00,49.2,48.4,30.05,SW,228,0.0,0.0,97,0.00,,,0.00,Wunderground v.1.15,2013-04-10 11:30:00,
2013-04-10 07:40:00,49.2,48.4,30.05,SW,228,0.0,0.0,97,0.00,,,0.00,Wunderground v.1.15,2013-04-10 11:40:00,
2013-04-10 07:50:00,49.5,48.7,30.06,SW,228,0.0,0.0,97,0.00,,,0.00,Wunderground v.1.15,2013-04-10 11:50:00,
2013-04-10 08:00:00,49.8,49.0,30.06,SW,228,0.0,0.0,97,0.00,,,0.00,Wunderground v.1.15,2013-04-10 12:00:00,
2013-04-10 08:10:00,50.4,49.6,30.06,SW,228,0.0,0.0,97,0.00,,,0.00,Wunderground v.1.15,2013-04-10 12:10:00,
2013-04-10 08:15:00,50.7,49.9,30.07,SW,228,0.0,0.0,97,0.00,,,0.00,Wunderground v.1.15,2013-04-10 12:15:00,
2013-04-10 08:20:00,51.3,50.8,30.07,SW,228,0.0,0.0,98,0.00,,,0.00,Wunderground v.1.15,2013-04-10 12:20:00,
2013-04-10 08:30:00,53.2,52.7,30.07,SW,229,0.0,0.0,98,0.00,,,0.00,Wunderground v.1.15,2013-04-10 12:30:00,
2013-04-10 08:35:00,54.4,53.6,30.07,SW,230,0.0,0.0,97,0.00,,,0.00,Wunderground v.1.15,2013-04-10 12:35:00,
2013-04-10 08:45:00,55.1,53.7,30.08,SW,230,0.0,0.0,95,0.00,,,0.00,Wunderground v.1.15,2013-04-10 12:45:00,
2013-04-10 08:55:00,54.8,53.1,30.08,SW,230,0.0,0.0,94,0.00,,,0.00,Wunderground v.1.15,2013-04-10 12:55:00,
2013-04-10 09:00:00,54.8,53.1,30.08,SW,230,0.0,0.0,94,0.00,,,0.00,Wunderground v.1.15,2013-04-10 13:00:00,
2013-04-10 09:10:00,56.5,54.8,30.08,SW,230,0.0,0.0,94,0.00,,,0.00,Wunderground v.1.15,2013-04-10 13:10:00,
2013-04-10 09:20:00,58.9,56.9,30.08,SW,230,0.0,0.0,93,0.00,,,0.00,Wunderground v.1.15,2013-04-10 13:20:00,
2013-04-10 09:30:00,60.9,57.3,30.08,SW,230,0.0,0.0,88,0.00,,,0.00,Wunderground v.1.15,2013-04-10 13:30:00,
2013-04-10 09:40:00,61.8,57.2,30.08,SW,231,0.0,0.0,85,0.00,,,0.00,Wunderground v.1.15,2013-04-10 13:40:00,
2013-04-10 09:50:00,62.9,58.0,30.08,SW,230,0.0,0.0,84,0.00,,,0.00,Wunderground v.1.15,2013-04-10 13:50:00,
2013-04-10 10:00:00,64.7,58.7,30.08,SW,227,0.0,0.0,81,0.00,,,0.00,Wunderground v.1.15,2013-04-10 14:00:00,
2013-04-10 10:10:00,65.8,59.1,30.08,SW,227,0.0,0.0,79,0.00,,,0.00,Wunderground v.1.15,2013-04-10 14:10:00,
2013-04-10 10:20:00,67.3,59.1,30.08,SW,215,0.0,1.0,75,0.00,,,0.00,Wunderground v.1.15,2013-04-10 14:20:00,
2013-04-10 10:25:00,67.9,58.1,30.08,SW,215,0.0,1.0,71,0.00,,,0.00,Wunderground v.1.15,2013-04-10 14:25:00,
2013-04-10 10:30:00,68.6,58.4,30.08,South,189,0.0,3.0,70,0.00,,,0.00,Wunderground v.1.15,2013-04-10 14:30:00,
2013-04-10 10:35:00,69.1,59.3,30.08,South,189,0.0,3.0,71,0.00,,,0.00,Wunderground v.1.15,2013-04-10 14:35:00,
2013-04-10 10:45:00,69.9,58.4,30.08,South,174,1.0,1.0,67,0.00,,,0.00,Wunderground v.1.15,2013-04-10 14:45:00,
2013-04-10 10:50:00,70.3,56.7,30.08,South,183,1.0,6.0,62,0.00,,,0.00,Wunderground v.1.15,2013-04-10 14:50:00,
2013-04-10 10:55:00,70.8,59.3,30.08,South,188,2.0,6.0,67,0.00,,,0.00,Wunderground v.1.15,2013-04-10 14:55:00,
2013-04-10 11:00:00,71.3,57.6,30.08,SSW,204,2.0,2.0,62,0.00,,,0.00,Wunderground v.1.15,2013-04-10 15:00:00,
2013-04-10 11:10:00,71.5,56.9,30.09,SSW,200,4.0,4.0,60,0.00,,,0.00,Wunderground v.1.15,2013-04-10 15:10:00,
2013-04-10 11:20:00,71.8,57.6,30.09,South,175,4.0,4.0,61,0.00,,,0.00,Wunderground v.1.15,2013-04-10 15:20:00,
2013-04-10 11:30:00,72.3,58.1,30.08,SW,227,3.0,3.0,61,0.00,,,0.00,Wunderground v.1.15,2013-04-10 15:30:00,
2013-04-10 11:40:00,72.8,57.2,30.08,South,190,3.0,5.0,58,0.00,,,0.00,Wunderground v.1.15,2013-04-10 15:40:00,
2013-04-10 11:50:00,73.3,58.6,30.08,South,187,3.0,5.0,60,0.00,,,0.00,Wunderground v.1.15,2013-04-10 15:50:00,
2013-04-10 12:00:00,74.4,57.7,30.08,SSE,165,4.0,4.0,56,0.00,,,0.00,Wunderground v.1.15,2013-04-10 16:00:00,
2013-04-10 12:05:00,74.4,58.7,30.08,SW,223,3.0,4.0,58,0.00,,,0.00,Wunderground v.1.15,2013-04-10 16:05:00,
2013-04-10 12:10:00,74.4,57.7,30.08,South,191,4.0,4.0,56,0.00,,,0.00,Wunderground v.1.15,2013-04-10 16:10:00,
2013-04-10 12:20:00,74.9,56.1,30.07,SW,230,6.0,6.0,52,0.00,,,0.00,Wunderground v.1.15,2013-04-10 16:20:00,
2013-04-10 12:30:00,75.3,57.5,30.07,South,184,4.0,4.0,54,0.00,,,0.00,Wunderground v.1.15,2013-04-10 16:30:00,
2013-04-10 12:40:00,75.3,57.5,30.06,SSW,192,4.0,7.0,54,0.00,,,0.00,Wunderground v.1.15,2013-04-10 16:40:00,
2013-04-10 12:45:00,75.1,57.3,30.05,SW,221,4.0,7.0,54,0.00,,,0.00,Wunderground v.1.15,2013-04-10 16:45:00,
2013-04-10 12:55:00,75.6,57.3,30.05,South,186,5.0,5.0,53,0.00,,,0.00,Wunderground v.1.15,2013-04-10 16:55:00,
2013-04-10 13:00:00,75.4,57.1,30.05,South,190,5.0,5.0,53,0.00,,,0.00,Wunderground v.1.15,2013-04-10 17:00:00,
2013-04-10 13:05:00,75.8,56.9,30.05,SW,217,6.0,13.0,52,0.00,,,0.00,Wunderground v.1.15,2013-04-10 17:05:00,
2013-04-10 13:10:00,75.8,59.5,30.05,SW,218,6.0,6.0,57,0.00,,,0.00,Wunderground v.1.15,2013-04-10 17:10:00,
2013-04-10 13:20:00,76.3,57.4,30.04,SW,229,4.0,4.0,52,0.00,,,0.00,Wunderground v.1.15,2013-04-10 17:20:00,
2013-04-10 13:30:00,76.7,56.7,30.04,SW,231,3.0,5.0,50,0.00,,,0.00,Wunderground v.1.15,2013-04-10 17:30:00,
2013-04-10 13:40:00,76.1,55.5,30.03,SSE,161,3.0,3.0,49,0.00,,,0.00,Wunderground v.1.15,2013-04-10 17:40:00,
2013-04-10 13:45:00,76.0,57.6,30.03,South,183,2.0,3.0,53,0.00,,,0.00,Wunderground v.1.15,2013-04-10 17:45:00,
2013-04-10 13:50:00,76.7,57.2,30.03,SSW,196,2.0,9.0,51,0.00,,,0.00,Wunderground v.1.15,2013-04-10 17:50:00,
2013-04-10 13:55:00,77.0,56.4,30.03,South,184,3.0,9.0,49,0.00,,,0.00,Wunderground v.1.15,2013-04-10 17:55:00,
2013-04-10 14:00:00,77.2,57.7,30.02,SSW,213,4.0,4.0,51,0.00,,,0.00,Wunderground v.1.15,2013-04-10 18:00:00,
2013-04-10 14:05:00,77.2,58.2,30.02,SSW,196,4.0,6.0,52,0.00,,,0.00,Wunderground v.1.15,2013-04-10 18:05:00,
2013-04-10 14:15:00,77.6,58.6,30.02,SSW,205,2.0,6.0,52,0.00,,,0.00,Wunderground v.1.15,2013-04-10 18:15:00,
2013-04-10 14:20:00,77.7,56.4,30.02,South,182,3.0,7.0,48,0.00,,,0.00,Wunderground v.1.15,2013-04-10 18:20:00,
2013-04-10 14:30:00,77.6,58.0,30.01,SSW,200,6.0,7.0,51,0.00,,,0.00,Wunderground v.1.15,2013-04-10 18:30:00,
2013-04-10 14:40:00,77.7,57.0,30.01,SSW,192,5.0,5.0,49,0.00,,,0.00,Wunderground v.1.15,2013-04-10 18:40:00,
2013-04-10 14:50:00,77.4,56.7,30.01,South,180,6.0,7.0,49,0.00,,,0.00,Wunderground v.1.15,2013-04-10 18:50:00,
2013-04-10 15:00:00,78.3,57.0,30.00,SSW,196,6.0,10.0,48,0.00,,,0.00,Wunderground v.1.15,2013-04-10 19:00:00,
2013-04-10 15:10:00,78.1,56.2,30.00,South,175,4.0,6.0,47,0.00,,,0.00,Wunderground v.1.15,2013-04-10 19:10:00,
2013-04-10 15:20:00,79.0,51.9,30.00,South,180,7.0,7.0,39,0.00,,,0.00,Wunderground v.1.15,2013-04-10 19:20:00,
2013-04-10 15:30:00,79.2,54.1,30.00,South,186,7.0,8.0,42,0.00,,,0.00,Wunderground v.1.15,2013-04-10 19:30:00,
2013-04-10 15:35:00,79.2,54.8,29.99,SSW,213,6.0,8.0,43,0.00,,,0.00,Wunderground v.1.15,2013-04-10 19:35:00,
2013-04-10 15:40:00,79.6,54.5,29.99,SW,226,6.0,6.0,42,0.00,,,0.00,Wunderground v.1.15,2013-04-10 19:40:00,
2013-04-10 15:50:00,79.6,54.5,29.98,SW,217,6.0,6.0,42,0.00,,,0.00,Wunderground v.1.15,2013-04-10 19:50:00,
2013-04-10 16:00:00,79.8,50.5,29.98,SW,217,7.0,9.0,36,0.00,,,0.00,Wunderground v.1.15,2013-04-10 20:00:00,
2013-04-10 16:05:00,79.9,52.0,29.98,SW,235,8.0,9.0,38,0.00,,,0.00,Wunderground v.1.15,2013-04-10 20:05:00,
2013-04-10 16:10:00,79.9,52.0,29.97,WSW,239,8.0,11.0,38,0.00,,,0.00,Wunderground v.1.15,2013-04-10 20:10:00,
2013-04-10 16:20:00,80.3,53.1,29.96,SW,217,8.0,8.0,39,0.00,,,0.00,Wunderground v.1.15,2013-04-10 20:20:00,
2013-04-10 16:25:00,80.3,52.4,29.96,WSW,240,7.0,9.0,38,0.00,,,0.00,Wunderground v.1.15,2013-04-10 20:25:00,
2013-04-10 16:30:00,80.3,50.9,29.95,South,190,7.0,7.0,36,0.00,,,0.00,Wunderground v.1.15,2013-04-10 20:30:00,
2013-04-10 16:40:00,80.1,50.0,29.95,SSW,202,9.0,9.0,35,0.00,,,0.00,Wunderground v.1.15,2013-04-10 20:40:00,
2013-04-10 16:50:00,80.3,49.4,29.95,SW,229,8.0,10.0,34,0.00,,,0.00,Wunderground v.1.15,2013-04-10 20:50:00,
2013-04-10 17:00:00,80.5,49.5,29.94,SW,223,7.0,8.0,34,0.00,,,0.00,Wunderground v.1.15,2013-04-10 21:00:00,
2013-04-10 17:10:00,80.5,49.5,29.93,SW,223,8.0,9.0,34,0.00,,,0.00,Wunderground v.1.15,2013-04-10 21:10:00,
2013-04-10 17:15:00,80.7,47.2,29.93,SSW,198,7.0,9.0,31,0.00,,,0.00,Wunderground v.1.15,2013-04-10 21:15:00,
2013-04-10 17:20:00,80.5,48.7,29.93,SSW,209,7.0,7.0,33,0.00,,,0.00,Wunderground v.1.15,2013-04-10 21:20:00,
2013-04-10 17:30:00,80.5,52.6,29.92,SSW,212,5.0,8.0,38,0.00,,,0.00,Wunderground v.1.15,2013-04-10 21:30:00,
2013-04-10 17:35:00,80.5,50.3,29.92,SSW,210,5.0,8.0,35,0.00,,,0.00,Wunderground v.1.15,2013-04-10 21:35:00,
2013-04-10 17:40:00,80.3,51.7,29.92,SW,216,5.0,7.0,37,0.00,,,0.00,Wunderground v.1.15,2013-04-10 21:40:00,
2013-04-10 17:45:00,80.3,51.7,29.91,SSW,213,4.0,7.0,37,0.00,,,0.00,Wunderground v.1.15,2013-04-10 21:45:00,
2013-04-10 17:50:00,80.1,52.9,29.91,South,186,3.0,8.0,39,0.00,,,0.00,Wunderground v.1.15,2013-04-10 21:50:00,
2013-04-10 18:00:00,79.9,51.3,29.91,SSW,199,4.0,4.0,37,0.00,,,0.00,Wunderground v.1.15,2013-04-10 22:00:00,
2013-04-10 18:15:00,80.3,53.1,29.91,SW,220,2.0,2.0,39,0.00,,,0.00,Wunderground v.1.15,2013-04-10 22:15:00,
2013-04-10 18:20:00,79.9,52.7,29.91,WSW,240,3.0,4.0,39,0.00,,,0.00,Wunderground v.1.15,2013-04-10 22:20:00,
2013-04-10 18:25:00,79.8,54.0,29.90,SSW,205,2.0,2.0,41,0.00,,,0.00,Wunderground v.1.15,2013-04-10 22:25:00,
2013-04-10 18:35:00,79.6,55.8,29.90,SW,215,0.0,0.0,44,0.00,,,0.00,Wunderground v.1.15,2013-04-10 22:35:00,
2013-04-10 18:40:00,79.6,54.5,29.90,SW,217,0.0,0.0,42,0.00,,,0.00,Wunderground v.1.15,2013-04-10 22:40:00,
2013-04-10 18:50:00,79.0,55.2,29.90,SSW,203,0.0,3.0,44,0.00,,,0.00,Wunderground v.1.15,2013-04-10 22:50:00,
2013-04-10 19:00:00,78.6,56.1,29.90,SW,221,0.0,0.0,46,0.00,,,0.00,Wunderground v.1.15,2013-04-10 23:00:00,
2013-04-10 19:10:00,78.1,55.6,29.90,SW,221,0.0,0.0,46,0.00,,,0.00,Wunderground v.1.15,2013-04-10 23:10:00,
2013-04-10 19:20:00,77.7,57.6,29.90,SW,221,0.0,0.0,50,0.00,,,0.00,Wunderground v.1.15,2013-04-10 23:20:00,
2013-04-10 19:30:00,76.8,56.2,29.89,SW,221,0.0,0.0,49,0.00,,,0.00,Wunderground v.1.15,2013-04-10 23:30:00,
2013-04-10 19:41:00,76.0,56.6,29.89,SW,221,0.0,0.0,51,0.00,,,0.00,Wunderground v.1.15,2013-04-10 23:41:00,
2013-04-10 19:50:00,74.2,55.4,29.89,SW,221,0.0,0.0,52,0.00,,,0.00,Wunderground v.1.15,2013-04-10 23:50:00,
2013-04-10 20:00:00,72.3,55.2,29.89,SW,221,0.0,0.0,55,0.00,,,0.00,Wunderground v.1.15,2013-04-11 00:00:00,
2013-04-10 20:05:00,71.6,55.1,29.89,SW,221,0.0,0.0,56,0.00,,,0.00,Wunderground v.1.15,2013-04-11 00:05:00,
2013-04-10 20:10:00,70.9,55.4,29.89,SW,221,0.0,0.0,58,0.00,,,0.00,Wunderground v.1.15,2013-04-11 00:10:00,
2013-04-10 20:15:00,69.8,54.8,29.89,SW,221,0.0,0.0,59,0.00,,,0.00,Wunderground v.1.15,2013-04-11 00:15:00,
2013-04-10 20:20:00,68.9,54.9,29.89,SW,221,0.0,0.0,61,0.00,,,0.00,Wunderground v.1.15,2013-04-11 00:20:00,
2013-04-10 20:30:00,67.9,54.4,29.89,SW,221,0.0,0.0,62,0.00,,,0.00,Wunderground v.1.15,2013-04-11 00:30:00,
2013-04-10 20:35:00,67.3,54.7,29.89,SW,221,0.0,0.0,64,0.00,,,0.00,Wunderground v.1.15,2013-04-11 00:35:00,
2013-04-10 20:45:00,66.3,54.6,29.89,SW,221,0.0,0.0,66,0.00,,,0.00,Wunderground v.1.15,2013-04-11 00:45:00,
2013-04-10 20:50:00,65.6,54.3,29.89,SW,221,0.0,0.0,67,0.00,,,0.00,Wunderground v.1.15,2013-04-11 00:50:00,
2013-04-10 21:00:00,64.7,54.3,29.89,SW,221,0.0,0.0,69,0.00,,,0.00,Wunderground v.1.15,2013-04-11 01:00:00,
2013-04-10 21:10:00,63.9,54.3,29.90,SW,221,0.0,0.0,71,0.00,,,0.00,Wunderground v.1.15,2013-04-11 01:10:00,
2013-04-10 21:20:00,63.1,53.9,29.89,SW,221,0.0,0.0,72,0.00,,,0.00,Wunderground v.1.15,2013-04-11 01:20:00,
2013-04-10 21:30:00,62.3,54.3,29.90,SW,221,0.0,0.0,75,0.00,,,0.00,Wunderground v.1.15,2013-04-11 01:30:00,
2013-04-10 21:40:00,61.5,54.2,29.90,SW,221,0.0,0.0,77,0.00,,,0.00,Wunderground v.1.15,2013-04-11 01:40:00,
2013-04-10 21:45:00,61.3,54.4,29.90,SW,221,0.0,0.0,78,0.00,,,0.00,Wunderground v.1.15,2013-04-11 01:45:00,
2013-04-10 21:55:00,61.0,54.4,29.89,SW,221,0.0,0.0,79,0.00,,,0.00,Wunderground v.1.15,2013-04-11 01:55:00,
2013-04-10 22:00:00,60.7,54.5,29.89,SW,221,0.0,0.0,80,0.00,,,0.00,Wunderground v.1.15,2013-04-11 02:00:00,
2013-04-10 22:10:00,60.4,54.5,29.90,SW,221,0.0,0.0,81,0.00,,,0.00,Wunderground v.1.15,2013-04-11 02:10:00,
2013-04-10 22:20:00,59.8,54.3,29.89,SW,221,0.0,0.0,82,0.00,,,0.00,Wunderground v.1.15,2013-04-11 02:20:00,
2013-04-10 22:30:00,59.5,54.0,29.89,SW,221,0.0,0.0,82,0.00,,,0.00,Wunderground v.1.15,2013-04-11 02:30:00,
2013-04-10 22:40:00,59.0,53.8,29.89,SW,221,0.0,0.0,83,0.00,,,0.00,Wunderground v.1.15,2013-04-11 02:40:00,
2013-04-10 22:50:00,58.6,53.5,29.90,SW,221,0.0,0.0,83,0.00,,,0.00,Wunderground v.1.15,2013-04-11 02:50:00,
2013-04-10 22:55:00,58.3,53.2,29.89,SW,221,0.0,0.0,83,0.00,,,0.00,Wunderground v.1.15,2013-04-11 02:55:00,
2013-04-10 23:00:00,58.1,53.0,29.89,SW,221,0.0,0.0,83,0.00,,,0.00,Wunderground v.1.15,2013-04-11 03:00:00,
2013-04-10 23:15:00,57.3,53.1,29.89,SW,221,0.0,0.0,86,0.00,,,0.00,Wunderground v.1.15,2013-04-11 03:15:00,
2013-04-10 23:20:00,57.5,53.3,29.89,SW,221,0.0,0.0,86,0.00,,,0.00,Wunderground v.1.15,2013-04-11 03:20:00,
2013-04-10 23:25:00,57.6,53.1,29.89,SW,221,0.0,0.0,85,0.00,,,0.00,Wunderground v.1.15,2013-04-11 03:25:00,
2013-04-10 23:30:00,57.5,53.3,29.89,SW,221,0.0,0.0,86,0.00,,,0.00,Wunderground v.1.15,2013-04-11 03:30:00,
2013-04-10 23:40:00,57.2,53.0,29.89,SW,221,0.0,0.0,86,0.00,,,0.00,Wunderground v.1.15,2013-04-11 03:40:00,
2013-04-10 23:50:00,57.0,53.2,29.89,SW,221,0.0,0.0,87,0.00,,,0.00,Wunderground v.1.15,2013-04-11 03:50:00,
2013-04-10 23:55:00,57.0,53.2,29.88,SW,221,0.0,0.0,87,0.00,,,0.00,Wunderground v.1.15,2013-04-11 03:55:00,